首页
METAR-TAF:

METAR-TAF

机场 :

Granite Falls Municipal Airport (Lenzen-Roe Memorial Field)

Granite Falls, 明尼蘇達州, 美国

纬度: 44-45-11N, 经度: 095-33-21W, 海拔: 319米

当前天气观测

该预报发布于24分钟前的01:37 UTC
风速8节,风向北转西北
温度 -4°C
湿度 80%
气压 1019 hPa
能見度: 11.3公里
多云层高于3200英尺

METAR: KGDB 140137Z AUTO 33008KT 7SM BKN032 M04/M07 A3009 RMK AO2 T10401067

时间: 20:01 (02:01 UTC)


TAF: 丢失

超过4000个机场的气象观测和天气预报(METAR&TAF报告)。

可查询的气象台以黄色和红色小点在地图上表示。

将鼠标移到小点上方,可查看气象台名称。

然后点击查看天气观测和预报。

如需切换地图:点击带黑十字的绿色按钮放大地图;点击带横线的绿色按钮缩小地图;或者点击绿色箭头查看邻近地区的地图。


METAR-TAF: